Petange, Luxembourg
Current Conditions -  °F | °C
As of 5:20 AM on Sunday 21 Dec 2014 (Local Time) from ELLX Reporting Station
Broken Clouds Broken Clouds  
Wind Chill: 37°   Ceiling: 4000
Heat Index: 37°   Visibility: 6mi
Dew Point: 37°   Wind: 3mph
Humidity: 100%   Direction: NA
Pressure: 30.45"   Gusts: NA
Location:  49.56°N, 5.88°E
Report Text: ELLX 210420Z VRB03KT 9999 FEW009 BKN040 03/03 Q1031 NOSIG
Loading
Personal Weather Stations






























Interactive Weather Map New forecast layout! Learn more

10-Day Weather Forecast

Advertisements
Track Severe Weather on mobile